Terminal Aerodrome Forecast
Issued by NWS

Home | Current Version | Previous Version | Text Only | Print | Product List | Glossary On
Versions: 1 2 3 4 5 6 7 8 9 10 11 12 13 14 15 16 17 18 19 20 21 22 23 24 25 26 27 28 29 30 31 32 33 34 35 36 37 38 39 40 41 42 43 44 45 46 47 48 49 50
000
FTUS44 KLIX 241410 AAA
TAFASD
TAF AMD
KASD 241410Z 2414/2512 14015G25KT P6SM BKN015 BKN025
     FM241500 14013G23KT P6SM BKN025
     FM241800 15015G23KT P6SM BKN035
     FM250000 14011G20KT P6SM BKN025
     FM250300 14012G21KT P6SM BKN015 PROB30 2509/2512 4SM TSRA
      OVC007CB=

USA.gov is the U.S. government's official web portal to all federal, state and local government web resources and services.